sensor_id;sensor_type;location;lat;lon;timestamp;P1;durP1;ratioP1;P2;durP2;ratioP2
28176;SDS011;15461;41.652;9.378;2022-08-07T00:01:08;11.25;;;5.57;;
28176;SDS011;15461;41.652;9.378;2022-08-07T00:03:34;8.48;;;5.10;;
28176;SDS011;15461;41.652;9.378;2022-08-07T00:06:01;6.68;;;4.70;;
28176;SDS011;15461;41.652;9.378;2022-08-07T00:08:27;13.48;;;4.65;;
28176;SDS011;15461;41.652;9.378;2022-08-07T00:10:53;10.18;;;4.72;;
28176;SDS011;15461;41.652;9.378;2022-08-07T00:13:20;8.48;;;4.72;;
28176;SDS011;15461;41.652;9.378;2022-08-07T00:15:46;11.98;;;4.72;;
28176;SDS011;15461;41.652;9.378;2022-08-07T00:18:14;9.07;;;5.03;;
28176;SDS011;15461;41.652;9.378;2022-08-07T00:20:42;9.00;;;5.30;;
28176;SDS011;15461;41.652;9.378;2022-08-07T00:23:07;9.98;;;5.53;;
28176;SDS011;15461;41.652;9.378;2022-08-07T00:25:36;9.50;;;5.30;;
28176;SDS011;15461;41.652;9.378;2022-08-07T00:28:02;12.52;;;5.10;;
28176;SDS011;15461;41.652;9.378;2022-08-07T00:30:28;12.55;;;5.03;;
28176;SDS011;15461;41.652;9.378;2022-08-07T00:32:55;10.70;;;4.82;;
28176;SDS011;15461;41.652;9.378;2022-08-07T00:35:22;6.97;;;4.93;;
28176;SDS011;15461;41.652;9.378;2022-08-07T00:37:49;7.07;;;4.47;;
28176;SDS011;15461;41.652;9.378;2022-08-07T00:40:15;6.45;;;4.63;;
28176;SDS011;15461;41.652;9.378;2022-08-07T00:42:41;7.97;;;5.05;;
28176;SDS011;15461;41.652;9.378;2022-08-07T00:45:07;7.18;;;4.43;;
28176;SDS011;15461;41.652;9.378;2022-08-07T00:47:34;7.47;;;4.75;;
28176;SDS011;15461;41.652;9.378;2022-08-07T00:50:00;9.43;;;4.97;;
28176;SDS011;15461;41.652;9.378;2022-08-07T00:52:26;8.20;;;4.65;;
28176;SDS011;15461;41.652;9.378;2022-08-07T00:54:52;9.82;;;4.78;;
28176;SDS011;15461;41.652;9.378;2022-08-07T00:57:18;8.02;;;4.80;;
28176;SDS011;15461;41.652;9.378;2022-08-07T00:59:46;13.27;;;4.70;;
28176;SDS011;15461;41.652;9.378;2022-08-07T01:02:12;7.35;;;4.43;;
28176;SDS011;15461;41.652;9.378;2022-08-07T01:04:38;14.80;;;5.35;;
28176;SDS011;15461;41.652;9.378;2022-08-07T01:07:04;8.98;;;5.18;;
28176;SDS011;15461;41.652;9.378;2022-08-07T01:09:31;8.02;;;5.05;;
28176;SDS011;15461;41.652;9.378;2022-08-07T01:11:57;7.70;;;4.85;;
28176;SDS011;15461;41.652;9.378;2022-08-07T01:14:24;7.88;;;5.00;;
28176;SDS011;15461;41.652;9.378;2022-08-07T01:16:51;6.30;;;4.85;;
28176;SDS011;15461;41.652;9.378;2022-08-07T01:19:19;7.30;;;4.63;;
28176;SDS011;15461;41.652;9.378;2022-08-07T01:21:51;6.88;;;4.63;;
28176;SDS011;15461;41.652;9.378;2022-08-07T01:24:19;7.65;;;4.50;;
28176;SDS011;15461;41.652;9.378;2022-08-07T01:26:45;8.50;;;4.63;;
28176;SDS011;15461;41.652;9.378;2022-08-07T01:29:12;8.48;;;4.63;;
28176;SDS011;15461;41.652;9.378;2022-08-07T01:31:38;7.53;;;4.72;;
28176;SDS011;15461;41.652;9.378;2022-08-07T01:34:05;8.55;;;5.10;;
28176;SDS011;15461;41.652;9.378;2022-08-07T01:36:35;7.82;;;4.80;;
28176;SDS011;15461;41.652;9.378;2022-08-07T01:39:08;8.48;;;4.90;;
28176;SDS011;15461;41.652;9.378;2022-08-07T01:41:34;6.60;;;4.82;;
28176;SDS011;15461;41.652;9.378;2022-08-07T01:44:01;7.53;;;5.03;;
28176;SDS011;15461;41.652;9.378;2022-08-07T01:46:31;7.60;;;4.97;;
28176;SDS011;15461;41.652;9.378;2022-08-07T01:48:57;10.43;;;5.60;;
28176;SDS011;15461;41.652;9.378;2022-08-07T01:51:24;10.70;;;5.32;;
28176;SDS011;15461;41.652;9.378;2022-08-07T01:53:52;8.45;;;4.97;;
28176;SDS011;15461;41.652;9.378;2022-08-07T01:56:30;10.98;;;5.20;;
28176;SDS011;15461;41.652;9.378;2022-08-07T02:02:16;8.60;;;5.53;;
28176;SDS011;15461;41.652;9.378;2022-08-07T02:04:48;10.88;;;5.28;;
28176;SDS011;15461;41.652;9.378;2022-08-07T02:07:19;10.52;;;4.93;;
28176;SDS011;15461;41.652;9.378;2022-08-07T02:09:50;9.70;;;5.10;;
28176;SDS011;15461;41.652;9.378;2022-08-07T02:12:19;11.25;;;5.38;;
28176;SDS011;15461;41.652;9.378;2022-08-07T02:14:52;9.00;;;4.80;;
28176;SDS011;15461;41.652;9.378;2022-08-07T02:17:39;7.28;;;4.80;;
28176;SDS011;15461;41.652;9.378;2022-08-07T02:20:08;6.22;;;4.63;;
28176;SDS011;15461;41.652;9.378;2022-08-07T02:22:36;8.52;;;4.50;;
28176;SDS011;15461;41.652;9.378;2022-08-07T02:25:04;5.60;;;4.45;;
28176;SDS011;15461;41.652;9.378;2022-08-07T02:27:31;9.93;;;4.72;;
28176;SDS011;15461;41.652;9.378;2022-08-07T02:30:00;9.88;;;4.95;;
28176;SDS011;15461;41.652;9.378;2022-08-07T02:32:32;10.85;;;5.10;;
28176;SDS011;15461;41.652;9.378;2022-08-07T02:35:03;9.65;;;4.72;;
28176;SDS011;15461;41.652;9.378;2022-08-07T02:37:31;7.63;;;4.60;;
28176;SDS011;15461;41.652;9.378;2022-08-07T02:40:00;8.32;;;5.00;;
28176;SDS011;15461;41.652;9.378;2022-08-07T02:42:29;7.82;;;4.63;;
28176;SDS011;15461;41.652;9.378;2022-08-07T02:44:59;9.57;;;4.78;;
28176;SDS011;15461;41.652;9.378;2022-08-07T02:47:28;5.55;;;4.55;;
28176;SDS011;15461;41.652;9.378;2022-08-07T02:50:03;9.43;;;4.30;;
28176;SDS011;15461;41.652;9.378;2022-08-07T02:57:46;6.82;;;4.50;;
28176;SDS011;15461;41.652;9.378;2022-08-07T03:00:14;7.85;;;4.30;;
28176;SDS011;15461;41.652;9.378;2022-08-07T03:02:41;7.10;;;4.60;;
28176;SDS011;15461;41.652;9.378;2022-08-07T03:05:13;6.03;;;4.75;;
28176;SDS011;15461;41.652;9.378;2022-08-07T03:07:41;6.70;;;4.63;;
28176;SDS011;15461;41.652;9.378;2022-08-07T03:10:11;6.18;;;4.47;;
28176;SDS011;15461;41.652;9.378;2022-08-07T03:12:37;30.13;;;7.05;;
28176;SDS011;15461;41.652;9.378;2022-08-07T03:15:09;23.40;;;5.97;;
28176;SDS011;15461;41.652;9.378;2022-08-07T03:17:37;21.02;;;5.60;;
28176;SDS011;15461;41.652;9.378;2022-08-07T03:20:05;17.95;;;6.30;;
28176;SDS011;15461;41.652;9.378;2022-08-07T03:22:33;39.88;;;8.48;;
28176;SDS011;15461;41.652;9.378;2022-08-07T03:25:01;27.60;;;7.30;;
28176;SDS011;15461;41.652;9.378;2022-08-07T03:27:36;15.55;;;5.20;;
28176;SDS011;15461;41.652;9.378;2022-08-07T03:30:05;9.98;;;5.00;;
28176;SDS011;15461;41.652;9.378;2022-08-07T03:32:33;7.10;;;4.80;;
28176;SDS011;15461;41.652;9.378;2022-08-07T03:35:03;17.98;;;5.82;;
28176;SDS011;15461;41.652;9.378;2022-08-07T03:37:33;23.60;;;6.20;;
28176;SDS011;15461;41.652;9.378;2022-08-07T03:40:02;22.65;;;5.80;;
28176;SDS011;15461;41.652;9.378;2022-08-07T03:42:31;8.40;;;5.25;;
28176;SDS011;15461;41.652;9.378;2022-08-07T03:45:01;7.28;;;4.78;;
28176;SDS011;15461;41.652;9.378;2022-08-07T03:47:29;8.13;;;4.32;;
28176;SDS011;15461;41.652;9.378;2022-08-07T03:49:57;7.13;;;4.80;;
28176;SDS011;15461;41.652;9.378;2022-08-07T03:52:26;7.63;;;4.55;;
28176;SDS011;15461;41.652;9.378;2022-08-07T03:55:00;6.75;;;4.20;;
28176;SDS011;15461;41.652;9.378;2022-08-07T03:57:28;6.20;;;4.47;;
28176;SDS011;15461;41.652;9.378;2022-08-07T03:59:56;8.02;;;4.57;;
28176;SDS011;15461;41.652;9.378;2022-08-07T04:02:23;7.10;;;4.60;;
28176;SDS011;15461;41.652;9.378;2022-08-07T04:04:49;10.38;;;4.80;;
28176;SDS011;15461;41.652;9.378;2022-08-07T04:07:16;5.07;;;4.20;;
28176;SDS011;15461;41.652;9.378;2022-08-07T04:09:48;8.07;;;4.50;;
28176;SDS011;15461;41.652;9.378;2022-08-07T04:12:16;9.10;;;5.00;;
28176;SDS011;15461;41.652;9.378;2022-08-07T04:14:44;9.68;;;5.03;;
28176;SDS011;15461;41.652;9.378;2022-08-07T04:17:12;12.20;;;4.88;;
28176;SDS011;15461;41.652;9.378;2022-08-07T04:19:39;9.43;;;4.93;;
28176;SDS011;15461;41.652;9.378;2022-08-07T04:22:05;17.35;;;4.90;;
28176;SDS011;15461;41.652;9.378;2022-08-07T04:24:36;10.82;;;4.75;;
28176;SDS011;15461;41.652;9.378;2022-08-07T04:27:05;5.53;;;4.43;;
28176;SDS011;15461;41.652;9.378;2022-08-07T04:29:34;8.30;;;4.55;;
28176;SDS011;15461;41.652;9.378;2022-08-07T04:32:00;6.20;;;4.40;;
28176;SDS011;15461;41.652;9.378;2022-08-07T04:34:27;8.27;;;4.45;;
28176;SDS011;15461;41.652;9.378;2022-08-07T04:36:54;7.03;;;5.10;;
28176;SDS011;15461;41.652;9.378;2022-08-07T04:39:21;8.63;;;5.20;;
28176;SDS011;15461;41.652;9.378;2022-08-07T04:41:47;10.80;;;5.50;;
28176;SDS011;15461;41.652;9.378;2022-08-07T04:44:14;9.55;;;4.88;;
28176;SDS011;15461;41.652;9.378;2022-08-07T04:58:10;8.63;;;5.47;;
28176;SDS011;15461;41.652;9.378;2022-08-07T05:00:33;20.15;;;5.88;;
28176;SDS011;15461;41.652;9.378;2022-08-07T05:08:56;8.88;;;4.50;;
28176;SDS011;15461;41.652;9.378;2022-08-07T05:11:27;7.25;;;4.93;;
28176;SDS011;15461;41.652;9.378;2022-08-07T05:14:02;8.77;;;5.03;;
28176;SDS011;15461;41.652;9.378;2022-08-07T05:16:34;8.07;;;4.75;;
28176;SDS011;15461;41.652;9.378;2022-08-07T05:19:07;8.77;;;4.70;;
28176;SDS011;15461;41.652;9.378;2022-08-07T05:21:37;8.45;;;4.63;;
28176;SDS011;15461;41.652;9.378;2022-08-07T05:24:09;6.15;;;4.70;;
28176;SDS011;15461;41.652;9.378;2022-08-07T05:26:38;6.00;;;4.97;;
28176;SDS011;15461;41.652;9.378;2022-08-07T05:29:07;7.53;;;4.80;;
28176;SDS011;15461;41.652;9.378;2022-08-07T05:31:39;10.15;;;5.15;;
28176;SDS011;15461;41.652;9.378;2022-08-07T05:34:12;11.85;;;5.65;;
28176;SDS011;15461;41.652;9.378;2022-08-07T05:36:42;6.78;;;5.25;;
28176;SDS011;15461;41.652;9.378;2022-08-07T05:39:19;10.38;;;4.63;;
28176;SDS011;15461;41.652;9.378;2022-08-07T05:41:48;9.80;;;4.60;;
28176;SDS011;15461;41.652;9.378;2022-08-07T05:44:18;8.20;;;5.30;;
28176;SDS011;15461;41.652;9.378;2022-08-07T05:46:49;16.50;;;5.22;;
28176;SDS011;15461;41.652;9.378;2022-08-07T05:49:18;6.55;;;4.50;;
28176;SDS011;15461;41.652;9.378;2022-08-07T05:51:46;11.35;;;4.95;;
28176;SDS011;15461;41.652;9.378;2022-08-07T05:54:16;9.32;;;5.78;;
28176;SDS011;15461;41.652;9.378;2022-08-07T05:56:43;7.03;;;4.80;;
28176;SDS011;15461;41.652;9.378;2022-08-07T05:59:13;11.38;;;6.05;;
28176;SDS011;15461;41.652;9.378;2022-08-07T06:01:44;11.65;;;4.90;;
28176;SDS011;15461;41.652;9.378;2022-08-07T06:04:13;10.43;;;4.20;;
28176;SDS011;15461;41.652;9.378;2022-08-07T06:06:42;5.35;;;4.43;;
28176;SDS011;15461;41.652;9.378;2022-08-07T06:09:09;6.95;;;4.22;;
28176;SDS011;15461;41.652;9.378;2022-08-07T06:11:39;7.72;;;4.30;;
28176;SDS011;15461;41.652;9.378;2022-08-07T06:14:06;4.65;;;4.03;;
28176;SDS011;15461;41.652;9.378;2022-08-07T06:16:33;7.63;;;3.97;;
28176;SDS011;15461;41.652;9.378;2022-08-07T06:19:03;14.70;;;4.68;;
28176;SDS011;15461;41.652;9.378;2022-08-07T06:21:31;6.82;;;4.22;;
28176;SDS011;15461;41.652;9.378;2022-08-07T06:23:58;8.82;;;4.43;;
28176;SDS011;15461;41.652;9.378;2022-08-07T06:26:24;6.63;;;3.85;;
28176;SDS011;15461;41.652;9.378;2022-08-07T06:28:53;6.07;;;4.10;;
28176;SDS011;15461;41.652;9.378;2022-08-07T06:31:23;6.85;;;3.70;;
28176;SDS011;15461;41.652;9.378;2022-08-07T06:33:51;7.85;;;3.72;;
28176;SDS011;15461;41.652;9.378;2022-08-07T06:36:19;6.18;;;3.50;;
28176;SDS011;15461;41.652;9.378;2022-08-07T06:38:49;4.97;;;3.22;;
28176;SDS011;15461;41.652;9.378;2022-08-07T06:44:34;8.52;;;2.78;;
28176;SDS011;15461;41.652;9.378;2022-08-07T06:47:02;3.78;;;2.97;;
28176;SDS011;15461;41.652;9.378;2022-08-07T06:49:30;3.13;;;2.80;;
28176;SDS011;15461;41.652;9.378;2022-08-07T06:51:58;7.18;;;3.30;;
28176;SDS011;15461;41.652;9.378;2022-08-07T06:54:30;6.05;;;3.17;;
28176;SDS011;15461;41.652;9.378;2022-08-07T07:00:44;3.60;;;2.90;;
28176;SDS011;15461;41.652;9.378;2022-08-07T07:03:11;4.53;;;2.97;;
28176;SDS011;15461;41.652;9.378;2022-08-07T07:05:38;3.30;;;2.80;;
28176;SDS011;15461;41.652;9.378;2022-08-07T07:08:06;4.80;;;3.08;;
28176;SDS011;15461;41.652;9.378;2022-08-07T07:10:35;7.00;;;3.05;;
28176;SDS011;15461;41.652;9.378;2022-08-07T07:13:06;5.90;;;3.28;;
28176;SDS011;15461;41.652;9.378;2022-08-07T07:15:44;5.63;;;3.10;;
28176;SDS011;15461;41.652;9.378;2022-08-07T07:18:14;6.35;;;2.90;;
28176;SDS011;15461;41.652;9.378;2022-08-07T07:21:07;5.00;;;2.78;;
28176;SDS011;15461;41.652;9.378;2022-08-07T07:23:46;5.00;;;2.72;;
28176;SDS011;15461;41.652;9.378;2022-08-07T07:26:14;5.65;;;2.72;;
28176;SDS011;15461;41.652;9.378;2022-08-07T07:28:56;5.43;;;2.75;;
28176;SDS011;15461;41.652;9.378;2022-08-07T07:31:43;7.07;;;3.03;;
28176;SDS011;15461;41.652;9.378;2022-08-07T07:34:13;4.00;;;3.10;;
28176;SDS011;15461;41.652;9.378;2022-08-07T07:36:44;5.43;;;2.60;;
28176;SDS011;15461;41.652;9.378;2022-08-07T07:39:12;5.45;;;2.67;;
28176;SDS011;15461;41.652;9.378;2022-08-07T07:41:40;4.32;;;2.47;;
28176;SDS011;15461;41.652;9.378;2022-08-07T07:44:09;3.40;;;2.63;;
28176;SDS011;15461;41.652;9.378;2022-08-07T07:46:38;5.88;;;2.42;;
28176;SDS011;15461;41.652;9.378;2022-08-07T07:49:05;4.40;;;2.70;;
28176;SDS011;15461;41.652;9.378;2022-08-07T07:51:34;4.88;;;2.40;;
28176;SDS011;15461;41.652;9.378;2022-08-07T07:54:01;2.95;;;2.50;;
28176;SDS011;15461;41.652;9.378;2022-08-07T07:56:29;6.15;;;2.88;;
28176;SDS011;15461;41.652;9.378;2022-08-07T07:59:02;5.07;;;2.80;;
28176;SDS011;15461;41.652;9.378;2022-08-07T08:04:42;8.65;;;3.60;;
28176;SDS011;15461;41.652;9.378;2022-08-07T08:07:10;3.58;;;3.28;;
28176;SDS011;15461;41.652;9.378;2022-08-07T08:09:37;6.60;;;3.80;;
28176;SDS011;15461;41.652;9.378;2022-08-07T08:12:04;4.53;;;3.65;;
28176;SDS011;15461;41.652;9.378;2022-08-07T08:14:31;7.22;;;3.47;;
28176;SDS011;15461;41.652;9.378;2022-08-07T08:16:59;8.55;;;3.88;;
28176;SDS011;15461;41.652;9.378;2022-08-07T08:19:27;4.30;;;3.50;;
28176;SDS011;15461;41.652;9.378;2022-08-07T08:21:54;6.57;;;3.90;;
28176;SDS011;15461;41.652;9.378;2022-08-07T08:24:42;5.13;;;3.63;;
28176;SDS011;15461;41.652;9.378;2022-08-07T08:27:30;5.95;;;3.85;;
28176;SDS011;15461;41.652;9.378;2022-08-07T08:30:06;10.75;;;3.72;;
28176;SDS011;15461;41.652;9.378;2022-08-07T08:32:40;6.80;;;4.10;;
28176;SDS011;15461;41.652;9.378;2022-08-07T08:35:09;5.15;;;3.90;;
28176;SDS011;15461;41.652;9.378;2022-08-07T08:37:41;6.70;;;3.77;;
28176;SDS011;15461;41.652;9.378;2022-08-07T08:40:12;8.25;;;4.20;;
28176;SDS011;15461;41.652;9.378;2022-08-07T08:43:08;7.82;;;3.67;;
28176;SDS011;15461;41.652;9.378;2022-08-07T08:45:47;7.47;;;3.90;;
28176;SDS011;15461;41.652;9.378;2022-08-07T08:48:26;5.70;;;4.30;;
28176;SDS011;15461;41.652;9.378;2022-08-07T08:51:00;7.97;;;4.10;;
28176;SDS011;15461;41.652;9.378;2022-08-07T08:53:42;7.25;;;4.38;;
28176;SDS011;15461;41.652;9.378;2022-08-07T08:56:42;7.13;;;3.95;;
28176;SDS011;15461;41.652;9.378;2022-08-07T08:59:19;7.75;;;4.00;;
28176;SDS011;15461;41.652;9.378;2022-08-07T09:16:01;6.68;;;3.92;;
28176;SDS011;15461;41.652;9.378;2022-08-07T09:27:03;11.05;;;4.00;;
28176;SDS011;15461;41.652;9.378;2022-08-07T09:29:55;12.65;;;3.65;;
28176;SDS011;15461;41.652;9.378;2022-08-07T09:32:38;8.32;;;3.70;;
28176;SDS011;15461;41.652;9.378;2022-08-07T09:35:50;6.97;;;4.13;;
28176;SDS011;15461;41.652;9.378;2022-08-07T09:41:35;6.90;;;3.80;;
28176;SDS011;15461;41.652;9.378;2022-08-07T09:52:59;6.28;;;3.88;;
28176;SDS011;15461;41.652;9.378;2022-08-07T09:58:13;11.10;;;4.20;;
28176;SDS011;15461;41.652;9.378;2022-08-07T10:15:17;9.60;;;4.32;;
28176;SDS011;15461;41.652;9.378;2022-08-07T10:37:22;9.02;;;4.05;;
28176;SDS011;15461;41.652;9.378;2022-08-07T10:40:13;8.02;;;3.85;;
28176;SDS011;15461;41.652;9.378;2022-08-07T10:45:37;7.47;;;4.20;;
28176;SDS011;15461;41.652;9.378;2022-08-07T10:50:48;9.73;;;3.97;;
28176;SDS011;15461;41.652;9.378;2022-08-07T11:10:19;9.77;;;4.10;;
28176;SDS011;15461;41.652;9.378;2022-08-07T11:12:57;6.22;;;4.22;;
28176;SDS011;15461;41.652;9.378;2022-08-07T11:15:45;11.80;;;4.30;;
28176;SDS011;15461;41.652;9.378;2022-08-07T11:26:34;6.78;;;4.25;;
28176;SDS011;15461;41.652;9.378;2022-08-07T11:29:13;10.43;;;4.97;;
28176;SDS011;15461;41.652;9.378;2022-08-07T11:34:58;6.40;;;4.32;;
28176;SDS011;15461;41.652;9.378;2022-08-07T11:40:59;6.35;;;4.30;;
28176;SDS011;15461;41.652;9.378;2022-08-07T11:43:24;5.80;;;4.32;;
28176;SDS011;15461;41.652;9.378;2022-08-07T11:48:41;9.75;;;4.25;;
28176;SDS011;15461;41.652;9.378;2022-08-07T12:11:15;8.35;;;4.05;;
28176;SDS011;15461;41.652;9.378;2022-08-07T12:16:21;8.35;;;4.35;;
28176;SDS011;15461;41.652;9.378;2022-08-07T12:27:34;5.82;;;4.50;;
28176;SDS011;15461;41.652;9.378;2022-08-07T12:30:05;10.10;;;4.70;;
28176;SDS011;15461;41.652;9.378;2022-08-07T12:32:40;10.00;;;4.97;;
28176;SDS011;15461;41.652;9.378;2022-08-07T12:35:23;9.93;;;5.03;;
28176;SDS011;15461;41.652;9.378;2022-08-07T12:37:51;9.15;;;4.95;;
28176;SDS011;15461;41.652;9.378;2022-08-07T12:40:22;9.05;;;5.00;;
28176;SDS011;15461;41.652;9.378;2022-08-07T12:42:51;8.32;;;4.60;;
28176;SDS011;15461;41.652;9.378;2022-08-07T12:45:20;10.90;;;5.20;;
28176;SDS011;15461;41.652;9.378;2022-08-07T12:54:40;8.55;;;5.75;;
28176;SDS011;15461;41.652;9.378;2022-08-07T12:57:15;10.70;;;4.68;;
28176;SDS011;15461;41.652;9.378;2022-08-07T12:59:58;9.65;;;3.97;;
28176;SDS011;15461;41.652;9.378;2022-08-07T13:06:19;11.23;;;4.32;;
28176;SDS011;15461;41.652;9.378;2022-08-07T13:21:37;31.83;;;7.00;;
28176;SDS011;15461;41.652;9.378;2022-08-07T13:24:17;18.25;;;7.18;;
28176;SDS011;15461;41.652;9.378;2022-08-07T13:26:48;21.90;;;7.55;;
28176;SDS011;15461;41.652;9.378;2022-08-07T13:38:28;19.35;;;7.30;;
28176;SDS011;15461;41.652;9.378;2022-08-07T13:44:13;14.02;;;6.32;;
28176;SDS011;15461;41.652;9.378;2022-08-07T13:46:45;10.32;;;6.00;;
28176;SDS011;15461;41.652;9.378;2022-08-07T13:49:12;8.68;;;5.85;;
28176;SDS011;15461;41.652;9.378;2022-08-07T13:51:42;14.13;;;6.95;;
28176;SDS011;15461;41.652;9.378;2022-08-07T13:54:11;11.20;;;6.45;;
28176;SDS011;15461;41.652;9.378;2022-08-07T13:56:39;11.32;;;6.32;;
28176;SDS011;15461;41.652;9.378;2022-08-07T13:59:08;9.23;;;5.80;;
28176;SDS011;15461;41.652;9.378;2022-08-07T14:01:42;6.88;;;5.30;;
28176;SDS011;15461;41.652;9.378;2022-08-07T14:04:46;12.00;;;5.80;;
28176;SDS011;15461;41.652;9.378;2022-08-07T14:07:15;9.45;;;5.97;;
28176;SDS011;15461;41.652;9.378;2022-08-07T14:09:43;8.10;;;5.90;;
28176;SDS011;15461;41.652;9.378;2022-08-07T14:12:12;6.90;;;4.82;;
28176;SDS011;15461;41.652;9.378;2022-08-07T14:14:50;10.85;;;5.05;;
28176;SDS011;15461;41.652;9.378;2022-08-07T14:17:21;10.82;;;4.70;;
28176;SDS011;15461;41.652;9.378;2022-08-07T14:19:54;6.47;;;4.80;;
28176;SDS011;15461;41.652;9.378;2022-08-07T14:22:33;5.20;;;4.70;;
28176;SDS011;15461;41.652;9.378;2022-08-07T14:25:02;5.63;;;4.43;;
28176;SDS011;15461;41.652;9.378;2022-08-07T14:27:45;6.40;;;4.45;;
28176;SDS011;15461;41.652;9.378;2022-08-07T14:30:13;5.43;;;4.47;;
28176;SDS011;15461;41.652;9.378;2022-08-07T14:32:44;4.85;;;4.10;;
28176;SDS011;15461;41.652;9.378;2022-08-07T14:35:23;4.60;;;4.03;;
28176;SDS011;15461;41.652;9.378;2022-08-07T14:37:52;6.63;;;4.35;;
28176;SDS011;15461;41.652;9.378;2022-08-07T14:40:20;5.75;;;4.50;;
28176;SDS011;15461;41.652;9.378;2022-08-07T14:48:17;5.63;;;3.88;;
28176;SDS011;15461;41.652;9.378;2022-08-07T14:50:47;8.35;;;4.20;;
28176;SDS011;15461;41.652;9.378;2022-08-07T14:53:17;5.35;;;4.00;;
28176;SDS011;15461;41.652;9.378;2022-08-07T14:55:45;13.30;;;4.55;;
28176;SDS011;15461;41.652;9.378;2022-08-07T14:58:13;9.93;;;4.88;;
28176;SDS011;15461;41.652;9.378;2022-08-07T15:00:42;7.43;;;4.07;;
28176;SDS011;15461;41.652;9.378;2022-08-07T15:03:13;7.75;;;3.72;;
28176;SDS011;15461;41.652;9.378;2022-08-07T15:05:39;5.60;;;3.15;;
28176;SDS011;15461;41.652;9.378;2022-08-07T15:08:07;4.90;;;3.63;;
28176;SDS011;15461;41.652;9.378;2022-08-07T15:10:35;10.85;;;3.55;;
28176;SDS011;15461;41.652;9.378;2022-08-07T15:13:14;3.42;;;3.10;;
28176;SDS011;15461;41.652;9.378;2022-08-07T15:15:45;4.55;;;3.30;;
28176;SDS011;15461;41.652;9.378;2022-08-07T15:18:17;3.40;;;3.10;;
28176;SDS011;15461;41.652;9.378;2022-08-07T15:21:02;5.05;;;3.15;;
28176;SDS011;15461;41.652;9.378;2022-08-07T15:23:31;3.55;;;2.90;;
28176;SDS011;15461;41.652;9.378;2022-08-07T15:26:00;8.15;;;3.30;;
28176;SDS011;15461;41.652;9.378;2022-08-07T15:28:27;3.92;;;2.80;;
28176;SDS011;15461;41.652;9.378;2022-08-07T15:31:01;4.68;;;3.10;;
28176;SDS011;15461;41.652;9.378;2022-08-07T15:33:28;3.67;;;3.08;;
28176;SDS011;15461;41.652;9.378;2022-08-07T15:35:56;4.72;;;3.03;;
28176;SDS011;15461;41.652;9.378;2022-08-07T15:38:28;4.22;;;3.05;;
28176;SDS011;15461;41.652;9.378;2022-08-07T15:40:55;3.92;;;3.25;;
28176;SDS011;15461;41.652;9.378;2022-08-07T15:43:24;5.85;;;3.47;;
28176;SDS011;15461;41.652;9.378;2022-08-07T15:45:53;5.15;;;2.92;;
28176;SDS011;15461;41.652;9.378;2022-08-07T15:48:26;5.78;;;3.60;;
28176;SDS011;15461;41.652;9.378;2022-08-07T15:50:55;7.63;;;3.75;;
28176;SDS011;15461;41.652;9.378;2022-08-07T15:53:27;7.07;;;3.83;;
28176;SDS011;15461;41.652;9.378;2022-08-07T15:56:21;6.78;;;3.72;;
28176;SDS011;15461;41.652;9.378;2022-08-07T15:58:55;11.02;;;3.90;;
28176;SDS011;15461;41.652;9.378;2022-08-07T16:03:57;7.43;;;3.90;;
28176;SDS011;15461;41.652;9.378;2022-08-07T16:11:48;10.40;;;4.20;;
28176;SDS011;15461;41.652;9.378;2022-08-07T16:22:36;13.43;;;5.57;;
28176;SDS011;15461;41.652;9.378;2022-08-07T16:25:28;9.55;;;5.00;;
28176;SDS011;15461;41.652;9.378;2022-08-07T16:31:12;8.80;;;4.90;;
28176;SDS011;15461;41.652;9.378;2022-08-07T16:34:03;7.82;;;4.43;;
28176;SDS011;15461;41.652;9.378;2022-08-07T16:53:28;8.15;;;4.55;;
28176;SDS011;15461;41.652;9.378;2022-08-07T16:56:18;8.25;;;4.68;;
28176;SDS011;15461;41.652;9.378;2022-08-07T16:59:01;5.68;;;4.25;;
28176;SDS011;15461;41.652;9.378;2022-08-07T17:07:57;10.75;;;4.55;;
28176;SDS011;15461;41.652;9.378;2022-08-07T17:13:32;9.13;;;4.95;;
28176;SDS011;15461;41.652;9.378;2022-08-07T17:16:06;12.93;;;4.55;;
28176;SDS011;15461;41.652;9.378;2022-08-07T17:21:27;5.30;;;4.70;;
28176;SDS011;15461;41.652;9.378;2022-08-07T17:26:31;6.68;;;4.43;;
28176;SDS011;15461;41.652;9.378;2022-08-07T17:29:03;11.60;;;4.80;;
28176;SDS011;15461;41.652;9.378;2022-08-07T17:34:10;7.22;;;4.90;;
28176;SDS011;15461;41.652;9.378;2022-08-07T17:36:41;8.25;;;4.20;;
28176;SDS011;15461;41.652;9.378;2022-08-07T17:45:20;19.05;;;5.20;;
28176;SDS011;15461;41.652;9.378;2022-08-07T17:48:05;20.77;;;5.15;;
28176;SDS011;15461;41.652;9.378;2022-08-07T17:50:35;5.78;;;4.65;;
28176;SDS011;15461;41.652;9.378;2022-08-07T17:53:26;9.85;;;4.60;;
28176;SDS011;15461;41.652;9.378;2022-08-07T17:56:02;7.47;;;4.63;;
28176;SDS011;15461;41.652;9.378;2022-08-07T17:58:56;18.85;;;4.80;;
28176;SDS011;15461;41.652;9.378;2022-08-07T18:01:32;10.60;;;4.65;;
28176;SDS011;15461;41.652;9.378;2022-08-07T18:06:50;11.20;;;5.53;;
28176;SDS011;15461;41.652;9.378;2022-08-07T18:09:22;23.60;;;6.40;;
28176;SDS011;15461;41.652;9.378;2022-08-07T18:11:52;20.73;;;5.95;;
28176;SDS011;15461;41.652;9.378;2022-08-07T18:16:58;11.48;;;5.53;;
28176;SDS011;15461;41.652;9.378;2022-08-07T18:22:09;10.00;;;6.32;;
28176;SDS011;15461;41.652;9.378;2022-08-07T18:24:47;14.57;;;5.60;;
28176;SDS011;15461;41.652;9.378;2022-08-07T18:27:23;7.95;;;5.32;;
28176;SDS011;15461;41.652;9.378;2022-08-07T18:35:35;9.55;;;5.40;;
28176;SDS011;15461;41.652;9.378;2022-08-07T18:41:10;7.22;;;5.60;;
28176;SDS011;15461;41.652;9.378;2022-08-07T18:46:52;8.70;;;5.70;;
28176;SDS011;15461;41.652;9.378;2022-08-07T18:52:38;6.03;;;4.90;;
28176;SDS011;15461;41.652;9.378;2022-08-07T18:55:24;8.98;;;5.18;;
28176;SDS011;15461;41.652;9.378;2022-08-07T19:01:04;7.05;;;5.13;;
28176;SDS011;15461;41.652;9.378;2022-08-07T19:03:47;7.63;;;5.40;;
28176;SDS011;15461;41.652;9.378;2022-08-07T19:09:25;9.20;;;5.68;;
28176;SDS011;15461;41.652;9.378;2022-08-07T19:20:16;8.32;;;5.90;;
28176;SDS011;15461;41.652;9.378;2022-08-07T19:22:53;8.40;;;5.45;;
28176;SDS011;15461;41.652;9.378;2022-08-07T19:25:33;7.13;;;5.60;;
28176;SDS011;15461;41.652;9.378;2022-08-07T19:28:05;7.95;;;6.00;;
28176;SDS011;15461;41.652;9.378;2022-08-07T19:30:36;15.48;;;8.98;;
28176;SDS011;15461;41.652;9.378;2022-08-07T19:33:04;11.27;;;7.55;;
28176;SDS011;15461;41.652;9.378;2022-08-07T19:35:32;14.50;;;8.05;;
28176;SDS011;15461;41.652;9.378;2022-08-07T19:38:00;9.35;;;7.35;;
28176;SDS011;15461;41.652;9.378;2022-08-07T19:40:36;8.27;;;7.25;;
28176;SDS011;15461;41.652;9.378;2022-08-07T19:43:11;10.35;;;7.18;;
28176;SDS011;15461;41.652;9.378;2022-08-07T19:45:51;8.38;;;7.38;;
28176;SDS011;15461;41.652;9.378;2022-08-07T19:48:22;8.00;;;7.15;;
28176;SDS011;15461;41.652;9.378;2022-08-07T19:50:55;7.72;;;6.90;;
28176;SDS011;15461;41.652;9.378;2022-08-07T19:53:31;12.77;;;7.20;;
28176;SDS011;15461;41.652;9.378;2022-08-07T19:56:05;8.20;;;7.03;;
28176;SDS011;15461;41.652;9.378;2022-08-07T19:58:35;9.90;;;6.53;;
28176;SDS011;15461;41.652;9.378;2022-08-07T20:01:03;10.52;;;6.97;;
28176;SDS011;15461;41.652;9.378;2022-08-07T20:03:29;9.27;;;7.15;;
28176;SDS011;15461;41.652;9.378;2022-08-07T20:05:57;12.18;;;7.25;;
28176;SDS011;15461;41.652;9.378;2022-08-07T20:08:27;8.60;;;7.13;;
28176;SDS011;15461;41.652;9.378;2022-08-07T20:11:07;7.80;;;6.93;;
28176;SDS011;15461;41.652;9.378;2022-08-07T20:16:05;12.43;;;8.52;;
28176;SDS011;15461;41.652;9.378;2022-08-07T20:18:34;12.45;;;7.05;;
28176;SDS011;15461;41.652;9.378;2022-08-07T20:21:04;9.48;;;7.10;;
28176;SDS011;15461;41.652;9.378;2022-08-07T20:23:32;10.82;;;7.00;;
28176;SDS011;15461;41.652;9.378;2022-08-07T20:26:03;9.60;;;7.43;;
28176;SDS011;15461;41.652;9.378;2022-08-07T20:28:32;8.55;;;6.93;;